Pagrindinis puslapis
METAR-TAF:

METAR-TAF

Oro uostai :

King Salmon, Aliaska, Jungtinės Amerikos Valstijos

platuma: 58-40-36N, ilguma: 156-38-57W, Aukštis: 17 m

Dabartinis oras

Ataskaita buvo paskelbta 43 minutes, ne 03:54 UTC
Vėjas 3 kt iš Šiaurės
Temperatūra -16°C
Drėgmė 60%
Slėgis 1019 hPa
Matomumas: 16.1 km
Giedras dangus

METAR: PAKN 290354Z 35003KT 10SM CLR M16/M22 A3009 RMK SLP192 T11611222 VIA AUTODIAL

Laikas: 19:37 (04:37 UTC)

Prognozė

Ataskaita buvo paskelbta 5 valandos ir 16 minutes, ne 23:21 UTC
Prognozė galioja nuo 29 metu 00 UTC su 29 metu 24 UTC
Vėjas 4 kt nuo kintamojo kryptimis
Matomumas: 10 km
Giedras dangus
Nuo 29 metu 2100 UTC
Vėjas 15 kt iš Rytų su gūsio iki 25 kt
Matomumas: 6.4 km
Išsisklaidę debesys ne aukštis 1500 ft
Apsiniaukę ne aukštis 2500 ft
sniegas

TAF: PAKN 282321Z 2900/2924 VRB04KT P6SM SKC FM292100 09015G25KT 4SM -SN SCT015 OVC025

Orai ataskaitas ir orų prognozės (METAR, TAF).

turimą stotys yra geltonos ir raudonos taškus žemėlapyje.

Perkelti pele per norėdami pamatyti stoties vardą.

Tada spustelėkite, norėdami matyti oro stebėjimo ir prognozės.

Norėdami pakeisti žemėlapį: spustelėkite ant žalios mygtukų su juodo kryžiaus žemyn,; žalią mygtuką su brūkšneliu, jei norite nutolinti; arba žalių rodyklių gretimoms žemėlapius.


METAR-TAF: